createdAt,value
2023-02-27T00:00:20.231Z,-0.41
2023-02-27T00:02:50.015Z,-0.43
2023-02-27T00:05:17.544Z,-0.47
2023-02-27T00:07:44.472Z,-0.49
2023-02-27T00:10:14.341Z,-0.48
2023-02-27T00:12:41.372Z,-0.46
2023-02-27T00:15:15.295Z,-0.46
2023-02-27T00:17:42.454Z,-0.49
2023-02-27T00:20:12.774Z,-0.49
2023-02-27T00:22:40.768Z,-0.56
2023-02-27T00:25:07.895Z,-0.48
2023-02-27T00:27:35.313Z,-0.44
2023-02-27T00:30:02.069Z,-0.52
2023-02-27T00:32:30.069Z,-0.47
2023-02-27T00:34:56.803Z,-0.58
2023-02-27T00:37:23.498Z,-0.56
2023-02-27T00:39:50.421Z,-0.62
2023-02-27T00:42:17.067Z,-0.56
2023-02-27T00:44:43.662Z,-0.57
2023-02-27T00:47:10.191Z,-0.58
2023-02-27T00:49:39.297Z,-0.65
2023-02-27T00:52:05.923Z,-0.67
2023-02-27T00:54:34.768Z,-0.59
2023-02-27T00:57:01.372Z,-0.61
2023-02-27T00:59:28.576Z,-0.62
2023-02-27T01:01:54.980Z,-0.64
2023-02-27T01:04:21.683Z,-0.60
2023-02-27T01:06:48.094Z,-0.62
2023-02-27T01:09:14.586Z,-0.63
2023-02-27T01:11:41.000Z,-0.61
2023-02-27T01:14:07.505Z,-0.66
2023-02-27T01:16:34.040Z,-0.65
2023-02-27T01:19:00.569Z,-0.72
2023-02-27T01:21:27.395Z,-0.70
2023-02-27T01:23:54.073Z,-0.65
2023-02-27T01:26:20.778Z,-0.71
2023-02-27T01:28:47.803Z,-0.78
2023-02-27T01:31:14.902Z,-0.74
2023-02-27T01:33:41.435Z,-0.76
2023-02-27T01:36:08.435Z,-0.73
2023-02-27T01:38:35.118Z,-0.73
2023-02-27T01:41:04.336Z,-0.73
2023-02-27T01:43:32.256Z,-0.74
2023-02-27T01:46:00.549Z,-0.74
2023-02-27T01:48:34.265Z,-0.84
2023-02-27T01:51:07.210Z,-0.79
2023-02-27T01:53:36.391Z,-0.80
2023-02-27T01:56:18.437Z,-0.78
2023-02-27T01:58:47.634Z,-0.81
2023-02-27T02:01:15.230Z,-0.76
2023-02-27T02:03:48.424Z,-0.75
2023-02-27T02:06:15.583Z,-0.75
2023-02-27T02:08:45.016Z,-0.78
2023-02-27T02:11:13.287Z,-0.81
2023-02-27T02:13:41.025Z,-0.85
2023-02-27T02:16:32.960Z,-0.87
2023-02-27T02:19:05.315Z,-0.83
2023-02-27T02:21:43.613Z,-0.89
2023-02-27T02:24:45.521Z,-0.89
2023-02-27T02:27:33.234Z,-0.91
2023-02-27T02:30:37.251Z,-0.93
2023-02-27T02:33:22.731Z,-0.96
2023-02-27T02:36:10.927Z,-0.93
2023-02-27T02:39:25.337Z,-0.95
2023-02-27T02:42:31.985Z,-0.98
2023-02-27T02:45:33.215Z,-0.99
2023-02-27T02:48:42.841Z,-1.00
2023-02-27T02:51:47.717Z,-1.05
2023-02-27T02:54:21.337Z,-0.99
2023-02-27T02:56:53.861Z,-1.06
2023-02-27T02:59:27.902Z,-1.01
2023-02-27T03:02:18.467Z,-1.09
2023-02-27T03:05:05.417Z,-1.05
2023-02-27T03:07:48.111Z,-1.05
2023-02-27T03:10:20.956Z,-1.10
2023-02-27T03:12:54.736Z,-1.08
2023-02-27T03:15:36.776Z,-1.15
2023-02-27T03:18:08.493Z,-1.17
2023-02-27T03:20:43.366Z,-1.18
2023-02-27T03:23:21.884Z,-1.14
2023-02-27T03:25:50.735Z,-1.17
2023-02-27T03:28:23.648Z,-1.17
2023-02-27T03:31:00.990Z,-1.21
2023-02-27T03:33:35.690Z,-1.23
2023-02-27T03:36:12.449Z,-1.26
2023-02-27T03:38:54.954Z,-1.27
2023-02-27T03:41:29.052Z,-1.30
2023-02-27T03:44:14.561Z,-1.26
2023-02-27T03:46:41.214Z,-1.27
2023-02-27T03:49:07.919Z,-1.23
2023-02-27T03:51:35.149Z,-1.15
2023-02-27T03:54:13.698Z,-1.27
2023-02-27T03:57:05.098Z,-1.32
2023-02-27T03:59:33.338Z,-1.25
2023-02-27T04:02:02.724Z,-1.29
2023-02-27T04:04:32.769Z,-1.29
2023-02-27T04:07:40.457Z,-1.27
2023-02-27T04:10:45.515Z,-1.24
2023-02-27T04:13:18.302Z,-1.25
2023-02-27T04:16:06.569Z,-1.27
2023-02-27T04:19:04.812Z,-1.26
2023-02-27T04:21:57.120Z,-1.29
2023-02-27T04:24:42.595Z,-1.28
2023-02-27T04:27:32.400Z,-1.18
2023-02-27T04:30:20.803Z,-1.23
2023-02-27T04:33:24.359Z,-1.27
2023-02-27T04:35:55.334Z,-1.31
2023-02-27T04:38:35.750Z,-1.24
2023-02-27T04:41:15.046Z,-1.23
2023-02-27T04:43:42.707Z,-1.22
2023-02-27T04:46:14.716Z,-1.30
2023-02-27T04:48:53.352Z,-1.28
2023-02-27T04:51:29.491Z,-1.29
2023-02-27T04:54:08.684Z,-1.30
2023-02-27T04:56:40.557Z,-1.32
2023-02-27T04:59:13.608Z,-1.33
2023-02-27T05:01:43.287Z,-1.30
2023-02-27T05:04:15.723Z,-1.32
2023-02-27T05:06:45.893Z,-1.39
2023-02-27T05:09:24.079Z,-1.39
2023-02-27T05:11:58.807Z,-1.41
2023-02-27T05:14:59.678Z,-1.37
2023-02-27T05:17:31.848Z,-1.39
2023-02-27T05:19:59.227Z,-1.36
2023-02-27T05:22:41.112Z,-1.46
2023-02-27T05:25:22.626Z,-1.41
2023-02-27T05:28:10.766Z,-1.40
2023-02-27T05:30:59.190Z,-1.47
2023-02-27T05:33:58.035Z,-1.41
2023-02-27T05:36:34.613Z,-1.47
2023-02-27T05:39:06.672Z,-1.52
2023-02-27T05:41:42.966Z,-1.55
2023-02-27T05:44:17.475Z,-1.47
2023-02-27T05:46:49.753Z,-1.49
2023-02-27T05:49:26.128Z,-1.41
2023-02-27T05:51:56.858Z,-1.26
2023-02-27T05:54:36.224Z,-1.28
2023-02-27T05:57:08.613Z,-1.33
2023-02-27T05:59:43.744Z,-1.31
2023-02-27T06:02:11.613Z,-1.27
2023-02-27T06:04:38.807Z,-1.47
2023-02-27T06:07:07.483Z,-1.44
2023-02-27T06:09:35.480Z,-1.41
2023-02-27T06:12:02.153Z,-1.46
2023-02-27T06:14:28.761Z,-1.41
2023-02-27T06:16:55.464Z,-1.44
2023-02-27T06:19:21.958Z,-1.44
2023-02-27T06:21:48.946Z,-1.43
2023-02-27T06:24:15.476Z,-1.35
2023-02-27T06:26:42.015Z,-1.34
2023-02-27T06:29:08.429Z,-1.34
2023-02-27T06:31:34.913Z,-1.40
2023-02-27T06:34:01.333Z,-1.31
2023-02-27T06:36:30.032Z,-1.35
2023-02-27T06:38:58.081Z,-1.36
2023-02-27T06:41:25.452Z,-1.34
2023-02-27T06:43:52.014Z,-1.31
2023-02-27T06:46:18.548Z,-1.35
2023-02-27T06:48:45.509Z,-1.28
2023-02-27T06:51:12.049Z,-1.23
2023-02-27T06:53:38.523Z,-1.19
2023-02-27T06:56:05.485Z,-1.18
2023-02-27T06:58:31.853Z,-1.15
2023-02-27T07:01:00.228Z,-1.11
2023-02-27T07:03:27.054Z,-0.99
2023-02-27T07:05:53.417Z,-1.01
2023-02-27T07:08:19.923Z,-0.96
2023-02-27T07:10:47.205Z,-0.90
2023-02-27T07:13:16.822Z,-0.80
2023-02-27T07:15:44.656Z,-0.78
2023-02-27T07:18:11.213Z,-0.80
2023-02-27T07:20:37.614Z,-0.68
2023-02-27T07:23:04.140Z,-0.62
2023-02-27T07:25:30.674Z,-0.51
2023-02-27T07:27:57.116Z,-0.43
2023-02-27T07:30:23.561Z,-0.36
2023-02-27T07:32:50.613Z,-0.25
2023-02-27T07:35:17.185Z,-0.15
2023-02-27T07:37:43.971Z,-0.11
2023-02-27T07:40:10.900Z,0.08
2023-02-27T07:42:37.451Z,0.10
2023-02-27T07:45:04.742Z,0.30
2023-02-27T07:47:31.640Z,0.23
2023-02-27T07:49:58.066Z,0.28
2023-02-27T07:52:25.253Z,0.59
2023-02-27T07:54:52.336Z,0.51
2023-02-27T07:57:18.848Z,0.65
2023-02-27T07:59:45.322Z,0.73
2023-02-27T08:02:12.346Z,0.84
2023-02-27T08:04:38.818Z,0.87
2023-02-27T08:07:05.674Z,0.98
2023-02-27T08:09:32.380Z,0.97
2023-02-27T08:11:58.829Z,0.91
2023-02-27T08:14:25.439Z,1.15
2023-02-27T08:16:51.926Z,1.35
2023-02-27T08:19:18.453Z,1.47
2023-02-27T08:21:44.807Z,1.49
2023-02-27T08:24:11.259Z,1.70
2023-02-27T08:26:37.805Z,2.04
2023-02-27T08:29:04.361Z,1.66
2023-02-27T08:31:30.903Z,1.95
2023-02-27T08:34:09.432Z,2.11
2023-02-27T08:36:37.710Z,2.13
2023-02-27T08:39:04.918Z,2.21
2023-02-27T08:41:31.364Z,2.22
2023-02-27T08:43:58.052Z,2.06
2023-02-27T08:46:24.878Z,2.28
2023-02-27T08:48:51.576Z,2.54
2023-02-27T08:51:17.990Z,2.58
2023-02-27T08:53:44.422Z,3.04
2023-02-27T08:56:10.920Z,2.73
2023-02-27T08:58:37.451Z,2.75
2023-02-27T09:01:04.170Z,2.96
2023-02-27T09:03:31.383Z,3.37
2023-02-27T09:05:58.146Z,2.92
2023-02-27T09:08:24.815Z,3.15
2023-02-27T09:10:51.312Z,2.92
2023-02-27T09:13:17.825Z,3.24
2023-02-27T09:15:47.611Z,3.73
2023-02-27T09:18:14.000Z,3.37
2023-02-27T09:20:41.483Z,3.36
2023-02-27T09:23:08.230Z,3.31
2023-02-27T09:25:34.889Z,3.77
2023-02-27T09:28:01.521Z,3.79
2023-02-27T09:30:28.032Z,3.55
2023-02-27T09:32:54.532Z,3.65
2023-02-27T09:35:21.772Z,3.54
2023-02-27T09:37:49.479Z,3.82
2023-02-27T09:40:40.328Z,4.17
2023-02-27T09:43:24.046Z,4.08
2023-02-27T09:45:54.925Z,4.18
2023-02-27T09:48:36.472Z,4.48
2023-02-27T09:51:03.496Z,4.20
2023-02-27T09:53:37.289Z,4.38
2023-02-27T09:56:19.227Z,4.42
2023-02-27T09:58:51.274Z,4.80
2023-02-27T10:01:30.128Z,4.76
2023-02-27T10:04:18.928Z,4.85
2023-02-27T10:06:57.793Z,4.99
2023-02-27T10:09:34.281Z,4.95
2023-02-27T10:13:55.725Z,5.20
2023-02-27T10:16:23.246Z,5.51
2023-02-27T10:19:05.984Z,5.46
2023-02-27T10:21:39.704Z,5.64
2023-02-27T10:24:26.389Z,5.79
2023-02-27T10:26:55.121Z,5.81
2023-02-27T10:29:36.501Z,6.25
2023-02-27T10:32:10.385Z,5.61
2023-02-27T10:34:39.579Z,6.02
2023-02-27T10:37:07.376Z,5.53
2023-02-27T10:39:51.601Z,5.55
2023-02-27T10:42:18.980Z,5.58
2023-02-27T10:44:46.123Z,5.70
2023-02-27T10:47:16.375Z,5.91
2023-02-27T10:49:44.120Z,5.81
2023-02-27T10:52:13.606Z,5.79
2023-02-27T10:54:42.052Z,5.70
2023-02-27T10:57:30.540Z,6.09
2023-02-27T11:00:05.800Z,6.29
2023-02-27T11:02:39.637Z,6.30
2023-02-27T11:05:22.752Z,6.30
2023-02-27T11:07:49.479Z,6.66
2023-02-27T11:10:19.761Z,6.59
2023-02-27T11:13:21.523Z,6.53
2023-02-27T11:16:07.298Z,6.81
2023-02-27T11:18:35.007Z,7.03
2023-02-27T11:21:19.984Z,6.69
2023-02-27T11:23:58.961Z,6.87
2023-02-27T11:26:36.154Z,7.10
2023-02-27T11:29:08.783Z,7.31
2023-02-27T11:31:37.787Z,7.23
2023-02-27T11:34:05.965Z,7.29
2023-02-27T11:36:39.955Z,7.11
2023-02-27T11:39:07.076Z,7.17
2023-02-27T11:41:34.571Z,7.12
2023-02-27T11:44:05.590Z,6.89
2023-02-27T11:46:46.317Z,6.82
2023-02-27T11:49:41.585Z,7.05
2023-02-27T11:52:28.768Z,7.41
2023-02-27T11:54:59.052Z,7.00
2023-02-27T11:57:38.517Z,7.43
2023-02-27T12:00:18.184Z,7.41
2023-02-27T12:02:55.277Z,7.13
2023-02-27T12:05:50.161Z,6.83
2023-02-27T12:08:38.025Z,7.34
2023-02-27T12:11:20.668Z,7.60
2023-02-27T12:13:53.334Z,7.49
2023-02-27T12:16:32.265Z,7.52
2023-02-27T12:19:20.367Z,7.04
2023-02-27T12:21:54.504Z,8.21
2023-02-27T12:24:27.048Z,7.41
2023-02-27T12:27:11.544Z,7.28
2023-02-27T12:29:59.420Z,7.84
2023-02-27T12:32:42.220Z,8.18
2023-02-27T12:35:43.664Z,8.31
2023-02-27T12:38:14.976Z,8.61
2023-02-27T12:40:59.727Z,8.85
2023-02-27T12:43:46.504Z,8.42
2023-02-27T12:46:22.901Z,8.55
2023-02-27T12:48:58.651Z,8.56
2023-02-27T12:51:28.568Z,7.90
2023-02-27T12:54:05.367Z,8.47
2023-02-27T12:56:50.266Z,8.56
2023-02-27T12:59:51.429Z,9.05
2023-02-27T13:02:36.046Z,8.54
2023-02-27T13:05:29.852Z,8.48
2023-02-27T13:08:08.370Z,9.23
2023-02-27T13:10:45.465Z,9.67
2023-02-27T13:13:36.196Z,9.09
2023-02-27T13:16:15.614Z,8.50
2023-02-27T13:18:56.888Z,8.86
2023-02-27T13:21:51.121Z,8.58
2023-02-27T13:24:26.392Z,9.17
2023-02-27T13:26:58.897Z,8.50
2023-02-27T13:29:49.173Z,8.82
2023-02-27T13:32:44.760Z,8.72
2023-02-27T13:35:48.846Z,8.58
2023-02-27T13:38:54.414Z,9.05
2023-02-27T13:41:20.979Z,9.09
2023-02-27T13:43:52.575Z,9.06
2023-02-27T13:46:29.703Z,8.47
2023-02-27T13:49:05.289Z,8.78
2023-02-27T13:51:34.986Z,8.94
2023-02-27T13:54:13.410Z,9.40
2023-02-27T13:56:59.071Z,9.31
2023-02-27T13:59:40.396Z,9.14
2023-02-27T14:02:09.860Z,9.41
2023-02-27T14:04:46.605Z,9.84
2023-02-27T14:07:21.262Z,10.29
2023-02-27T14:09:51.820Z,9.48
2023-02-27T14:12:30.954Z,9.91
2023-02-27T14:15:26.349Z,9.03
2023-02-27T14:18:12.314Z,10.33
2023-02-27T14:20:40.603Z,10.02
2023-02-27T14:23:20.680Z,9.47
2023-02-27T14:25:54.203Z,9.21
2023-02-27T14:28:46.996Z,10.68
2023-02-27T14:31:26.357Z,10.72
2023-02-27T14:33:55.737Z,9.71
2023-02-27T14:36:25.973Z,9.21
2023-02-27T14:38:57.849Z,9.09
2023-02-27T14:41:27.310Z,9.39
2023-02-27T14:43:57.389Z,8.94
2023-02-27T14:46:30.773Z,8.72
2023-02-27T14:49:03.629Z,10.06
2023-02-27T14:51:36.944Z,9.78
2023-02-27T14:54:13.902Z,10.35
2023-02-27T14:56:41.328Z,9.53
2023-02-27T14:59:25.353Z,9.23
2023-02-27T15:01:53.547Z,9.51
2023-02-27T15:04:23.385Z,10.13
2023-02-27T15:06:52.166Z,9.44
2023-02-27T15:09:30.845Z,10.06
2023-02-27T15:12:03.936Z,9.98
2023-02-27T15:14:37.213Z,10.34
2023-02-27T15:17:14.405Z,9.04
2023-02-27T15:19:47.854Z,9.80
2023-02-27T15:22:28.936Z,10.19
2023-02-27T15:25:04.714Z,10.18
2023-02-27T15:27:32.030Z,9.22
2023-02-27T15:30:00.452Z,9.49
2023-02-27T15:32:30.807Z,10.10
2023-02-27T15:35:00.866Z,11.01
2023-02-27T15:37:31.606Z,10.53
2023-02-27T15:39:59.759Z,10.80
2023-02-27T15:42:30.346Z,11.06
2023-02-27T15:44:58.442Z,10.52
2023-02-27T15:47:28.222Z,10.84
2023-02-27T15:50:06.930Z,11.15
2023-02-27T15:52:41.605Z,10.95
2023-02-27T15:55:16.560Z,10.37
2023-02-27T15:57:56.642Z,10.85
2023-02-27T16:00:30.958Z,10.35
2023-02-27T16:02:58.517Z,9.56
2023-02-27T16:05:30.400Z,8.77
2023-02-27T16:07:56.908Z,7.54
2023-02-27T16:10:28.105Z,7.42
2023-02-27T16:12:55.245Z,7.48
2023-02-27T16:15:30.002Z,7.06
2023-02-27T16:18:00.821Z,7.04
2023-02-27T16:20:41.814Z,6.28
2023-02-27T16:23:29.275Z,6.39
2023-02-27T16:26:30.864Z,6.11
2023-02-27T16:29:04.003Z,6.21
2023-02-27T16:31:32.067Z,6.10
2023-02-27T16:34:00.999Z,6.22
2023-02-27T16:36:32.286Z,6.22
2023-02-27T16:38:59.655Z,5.80
2023-02-27T16:41:27.320Z,5.61
2023-02-27T16:43:54.090Z,5.14
2023-02-27T16:46:22.122Z,5.45
2023-02-27T16:48:51.126Z,4.71
2023-02-27T16:51:21.391Z,4.50
2023-02-27T16:53:48.184Z,4.75
2023-02-27T16:56:16.257Z,4.64
2023-02-27T16:58:44.676Z,4.26
2023-02-27T17:01:13.874Z,4.52
2023-02-27T17:03:41.726Z,4.70
2023-02-27T17:06:09.523Z,4.58
2023-02-27T17:08:36.055Z,4.42
2023-02-27T17:11:04.172Z,4.60
2023-02-27T17:13:32.137Z,4.29
2023-02-27T17:16:06.335Z,4.00
2023-02-27T17:18:33.216Z,4.06
2023-02-27T17:21:01.038Z,4.04
2023-02-27T17:23:27.663Z,3.60
2023-02-27T17:25:54.595Z,3.63
2023-02-27T17:28:22.494Z,3.41
2023-02-27T17:30:50.253Z,3.68
2023-02-27T17:33:17.382Z,3.46
2023-02-27T17:35:43.831Z,3.50
2023-02-27T17:38:10.334Z,3.14
2023-02-27T17:40:37.687Z,3.44
2023-02-27T17:43:04.395Z,3.47
2023-02-27T17:45:31.020Z,3.29
2023-02-27T17:47:57.456Z,3.37
2023-02-27T17:50:23.937Z,3.03
2023-02-27T17:52:50.430Z,3.15
2023-02-27T17:55:17.027Z,3.30
2023-02-27T17:57:43.612Z,3.19
2023-02-27T18:00:16.153Z,3.16
2023-02-27T18:02:45.637Z,3.08
2023-02-27T18:05:12.217Z,3.18
2023-02-27T18:07:39.478Z,3.16
2023-02-27T18:10:08.934Z,3.12
2023-02-27T18:12:36.682Z,2.93
2023-02-27T18:15:05.766Z,3.03
2023-02-27T18:17:32.776Z,2.99
2023-02-27T18:19:59.769Z,3.01
2023-02-27T18:22:26.853Z,2.91
2023-02-27T18:24:54.589Z,2.94
2023-02-27T18:27:22.270Z,2.91
2023-02-27T18:29:50.068Z,2.84
2023-02-27T18:32:17.585Z,2.61
2023-02-27T18:34:44.473Z,2.85
2023-02-27T18:37:11.368Z,2.83
2023-02-27T18:39:38.169Z,2.72
2023-02-27T18:42:06.800Z,2.75
2023-02-27T18:44:33.721Z,2.64
2023-02-27T18:47:00.515Z,2.46
2023-02-27T18:49:27.597Z,2.43
2023-02-27T18:51:54.077Z,2.43
2023-02-27T18:54:20.846Z,2.41
2023-02-27T18:56:50.816Z,2.48
2023-02-27T18:59:17.232Z,2.49
2023-02-27T19:01:43.964Z,2.38
2023-02-27T19:04:11.075Z,2.38
2023-02-27T19:06:40.880Z,2.35
2023-02-27T19:09:10.082Z,2.41
2023-02-27T19:11:36.961Z,2.23
2023-02-27T19:14:06.595Z,2.16
2023-02-27T19:16:33.751Z,2.19
2023-02-27T19:19:01.642Z,2.22
2023-02-27T19:21:29.103Z,2.15
2023-02-27T19:23:56.172Z,2.17
2023-02-27T19:26:24.649Z,2.25
2023-02-27T19:28:53.632Z,2.21
2023-02-27T19:31:21.548Z,2.13
2023-02-27T19:33:48.282Z,2.21
2023-02-27T19:36:17.846Z,2.12
2023-02-27T19:38:44.539Z,2.04
2023-02-27T19:41:14.024Z,2.06
2023-02-27T19:43:41.479Z,2.00
2023-02-27T19:46:11.129Z,1.76
2023-02-27T19:48:38.652Z,1.88
2023-02-27T19:51:06.630Z,1.84
2023-02-27T19:53:35.826Z,1.88
2023-02-27T19:56:05.325Z,1.89
2023-02-27T19:58:33.519Z,1.87
2023-02-27T20:01:00.684Z,1.93
2023-02-27T20:03:28.943Z,1.86
2023-02-27T20:05:55.850Z,1.87
2023-02-27T20:08:22.790Z,1.95
2023-02-27T20:10:59.905Z,1.83
2023-02-27T20:13:27.455Z,1.82
2023-02-27T20:15:58.572Z,1.82
2023-02-27T20:18:27.382Z,1.90
2023-02-27T20:21:02.465Z,1.95
2023-02-27T20:23:29.981Z,2.00
2023-02-27T20:25:56.618Z,1.93
2023-02-27T20:28:23.570Z,1.91
2023-02-27T20:30:50.319Z,1.84
2023-02-27T20:33:16.810Z,1.80
2023-02-27T20:35:43.304Z,1.71
2023-02-27T20:38:10.116Z,1.72
2023-02-27T20:40:36.751Z,1.67
2023-02-27T20:43:04.153Z,1.70
2023-02-27T20:45:30.765Z,1.56
2023-02-27T20:47:57.319Z,1.60
2023-02-27T20:50:23.837Z,1.60
2023-02-27T20:52:53.633Z,1.57
2023-02-27T20:55:20.394Z,1.51
2023-02-27T20:57:46.857Z,1.47
2023-02-27T21:00:14.574Z,1.36
2023-02-27T21:02:41.209Z,1.42
2023-02-27T21:05:08.018Z,1.49
2023-02-27T21:07:34.591Z,1.32
2023-02-27T21:10:01.156Z,1.44
2023-02-27T21:12:27.726Z,1.55
2023-02-27T21:14:55.869Z,1.40
2023-02-27T21:17:24.818Z,1.25
2023-02-27T21:19:51.740Z,1.27
2023-02-27T21:22:18.454Z,1.25
2023-02-27T21:24:46.833Z,1.25
2023-02-27T21:27:13.445Z,1.31
2023-02-27T21:29:40.203Z,1.29
2023-02-27T21:32:07.407Z,1.27
2023-02-27T21:34:34.066Z,1.22
2023-02-27T21:37:02.626Z,1.24
2023-02-27T21:39:29.314Z,1.45
2023-02-27T21:41:56.146Z,1.53
2023-02-27T21:44:26.594Z,1.38
2023-02-27T21:46:54.076Z,1.38
2023-02-27T21:49:24.509Z,1.48
2023-02-27T21:51:51.194Z,1.36
2023-02-27T21:54:18.907Z,1.37
2023-02-27T21:56:47.294Z,1.35
2023-02-27T21:59:15.181Z,1.45
2023-02-27T22:01:46.920Z,1.36
2023-02-27T22:04:15.338Z,1.34
2023-02-27T22:06:41.777Z,1.36
2023-02-27T22:09:08.236Z,1.30
2023-02-27T22:11:35.307Z,1.41
2023-02-27T22:14:02.923Z,1.42
2023-02-27T22:16:29.354Z,1.34
2023-02-27T22:18:55.983Z,1.29
2023-02-27T22:21:25.238Z,1.44
2023-02-27T22:23:52.460Z,1.45
2023-02-27T22:26:21.974Z,1.35
2023-02-27T22:28:48.519Z,1.36
2023-02-27T22:31:21.139Z,1.25
2023-02-27T22:33:50.174Z,1.33
2023-02-27T22:36:35.821Z,1.43
2023-02-27T22:39:03.019Z,1.34
2023-02-27T22:41:32.480Z,1.16
2023-02-27T22:44:00.311Z,1.16
2023-02-27T22:46:29.666Z,1.19
2023-02-27T22:48:58.463Z,1.16
2023-02-27T22:51:27.750Z,1.11
2023-02-27T22:53:56.524Z,1.12
2023-02-27T22:56:23.907Z,1.11
2023-02-27T22:58:50.956Z,1.08
2023-02-27T23:01:21.578Z,0.99
2023-02-27T23:03:51.152Z,0.99
2023-02-27T23:06:20.647Z,0.96
2023-02-27T23:08:47.999Z,0.85
2023-02-27T23:11:15.994Z,0.97
2023-02-27T23:13:42.631Z,0.77
2023-02-27T23:16:13.670Z,0.72
2023-02-27T23:18:43.237Z,0.76
2023-02-27T23:21:10.213Z,0.76
2023-02-27T23:23:36.871Z,0.73
2023-02-27T23:26:04.232Z,0.53
2023-02-27T23:28:30.775Z,0.50
2023-02-27T23:30:58.304Z,0.45
2023-02-27T23:33:26.171Z,0.43
2023-02-27T23:35:53.096Z,0.42
2023-02-27T23:38:19.660Z,0.54
2023-02-27T23:40:46.433Z,0.53
2023-02-27T23:43:32.926Z,0.54
2023-02-27T23:46:05.806Z,0.35
2023-02-27T23:48:32.381Z,0.48
2023-02-27T23:51:02.593Z,0.37
2023-02-27T23:53:30.248Z,0.39
2023-02-27T23:55:56.856Z,0.41
2023-02-27T23:58:23.483Z,0.46
